sensor_id;sensor_type;location;lat;lon;timestamp;temperature;humidity
45313;SHT31;68267;51.540;5.854;2023-04-25T00:00:13;6.5;85.8
45313;SHT31;68267;51.540;5.854;2023-04-25T00:13:33;6.5;86.0
45313;SHT31;68267;51.540;5.854;2023-04-25T00:26:53;6.6;86.0
45313;SHT31;68267;51.540;5.854;2023-04-25T00:40:12;6.4;86.4
45313;SHT31;68267;51.540;5.854;2023-04-25T00:53:32;6.3;86.8
45313;SHT31;68267;51.540;5.854;2023-04-25T01:06:52;6.2;87.1
45313;SHT31;68267;51.540;5.854;2023-04-25T01:20:11;6.1;87.4
45313;SHT31;68267;51.540;5.854;2023-04-25T01:33:31;6.0;87.6
45313;SHT31;68267;51.540;5.854;2023-04-25T01:46:51;5.8;88.1
45313;SHT31;68267;51.540;5.854;2023-04-25T02:00:10;5.6;88.5
45313;SHT31;68267;51.540;5.854;2023-04-25T02:13:30;5.6;88.6
45313;SHT31;68267;51.540;5.854;2023-04-25T02:26:50;5.5;89.1
45313;SHT31;68267;51.540;5.854;2023-04-25T02:40:10;5.4;89.1
45313;SHT31;68267;51.540;5.854;2023-04-25T02:53:29;5.3;89.1
45313;SHT31;68267;51.540;5.854;2023-04-25T03:06:49;5.2;88.7
45313;SHT31;68267;51.540;5.854;2023-04-25T03:20:09;5.0;88.7
45313;SHT31;68267;51.540;5.854;2023-04-25T03:33:29;4.8;89.5
45313;SHT31;68267;51.540;5.854;2023-04-25T03:46:48;4.6;89.5
45313;SHT31;68267;51.540;5.854;2023-04-25T04:00:08;4.6;90.0
45313;SHT31;68267;51.540;5.854;2023-04-25T04:13:28;4.7;90.0
45313;SHT31;68267;51.540;5.854;2023-04-25T04:26:47;4.6;89.8
45313;SHT31;68267;51.540;5.854;2023-04-25T04:40:07;4.8;89.5
45313;SHT31;68267;51.540;5.854;2023-04-25T04:53:27;4.9;89.4
45313;SHT31;68267;51.540;5.854;2023-04-25T05:06:46;4.9;89.3
45313;SHT31;68267;51.540;5.854;2023-04-25T05:20:06;5.1;89.2
45313;SHT31;68267;51.540;5.854;2023-04-25T05:33:26;5.4;88.2
45313;SHT31;68267;51.540;5.854;2023-04-25T05:46:46;5.7;87.0
45313;SHT31;68267;51.540;5.854;2023-04-25T06:00:05;6.1;85.4
45313;SHT31;68267;51.540;5.854;2023-04-25T06:13:25;6.3;84.0
45313;SHT31;68267;51.540;5.854;2023-04-25T06:26:45;6.6;80.6
45313;SHT31;68267;51.540;5.854;2023-04-25T06:40:05;6.9;78.2
45313;SHT31;68267;51.540;5.854;2023-04-25T06:53:25;7.2;76.9
45313;SHT31;68267;51.540;5.854;2023-04-25T07:06:44;7.8;73.8
45313;SHT31;68267;51.540;5.854;2023-04-25T07:20:04;8.1;73.9
45313;SHT31;68267;51.540;5.854;2023-04-25T07:33:24;8.5;69.5
45313;SHT31;68267;51.540;5.854;2023-04-25T07:46:43;9.3;69.0
45313;SHT31;68267;51.540;5.854;2023-04-25T08:00:03;9.1;70.5
45313;SHT31;68267;51.540;5.854;2023-04-25T08:13:23;9.1;68.3
45313;SHT31;68267;51.540;5.854;2023-04-25T08:26:43;9.5;65.4
45313;SHT31;68267;51.540;5.854;2023-04-25T08:40:02;9.2;65.9
45313;SHT31;68267;51.540;5.854;2023-04-25T08:53:22;9.3;64.7
45313;SHT31;68267;51.540;5.854;2023-04-25T09:06:42;9.9;60.6
45313;SHT31;68267;51.540;5.854;2023-04-25T09:20:01;10.2;58.7
45313;SHT31;68267;51.540;5.854;2023-04-25T09:33:21;9.6;60.4
45313;SHT31;68267;51.540;5.854;2023-04-25T09:46:41;10.5;61.5
45313;SHT31;68267;51.540;5.854;2023-04-25T10:00:01;9.4;63.2
45313;SHT31;68267;51.540;5.854;2023-04-25T10:13:21;7.3;73.7
45313;SHT31;68267;51.540;5.854;2023-04-25T10:26:41;7.2;72.1
45313;SHT31;68267;51.540;5.854;2023-04-25T10:40:00;7.9;71.2
45313;SHT31;68267;51.540;5.854;2023-04-25T10:53:20;9.0;64.8
45313;SHT31;68267;51.540;5.854;2023-04-25T11:06:40;10.1;64.4
45313;SHT31;68267;51.540;5.854;2023-04-25T11:20:00;10.1;62.4
45313;SHT31;68267;51.540;5.854;2023-04-25T11:33:19;9.5;61.2
45313;SHT31;68267;51.540;5.854;2023-04-25T11:46:39;8.9;64.0
45313;SHT31;68267;51.540;5.854;2023-04-25T11:59:59;9.1;64.9
45313;SHT31;68267;51.540;5.854;2023-04-25T12:13:19;10.1;64.4
45313;SHT31;68267;51.540;5.854;2023-04-25T12:26:38;10.2;59.2
45313;SHT31;68267;51.540;5.854;2023-04-25T12:39:58;11.1;59.0
45313;SHT31;68267;51.540;5.854;2023-04-25T12:53:18;10.1;59.8
45313;SHT31;68267;51.540;5.854;2023-04-25T13:06:38;11.3;51.8
45313;SHT31;68267;51.540;5.854;2023-04-25T13:19:57;11.2;48.6
45313;SHT31;68267;51.540;5.854;2023-04-25T13:33:17;10.2;62.5
45313;SHT31;68267;51.540;5.854;2023-04-25T13:46:36;10.5;58.9
45313;SHT31;68267;51.540;5.854;2023-04-25T13:59:56;10.4;58.7
45313;SHT31;68267;51.540;5.854;2023-04-25T14:13:16;10.9;50.1
45313;SHT31;68267;51.540;5.854;2023-04-25T14:26:36;10.9;55.9
45313;SHT31;68267;51.540;5.854;2023-04-25T14:39:55;11.5;53.2
45313;SHT31;68267;51.540;5.854;2023-04-25T14:53:15;11.3;49.3
45313;SHT31;68267;51.540;5.854;2023-04-25T15:06:34;11.3;51.8
45313;SHT31;68267;51.540;5.854;2023-04-25T15:19:54;11.9;48.4
45313;SHT31;68267;51.540;5.854;2023-04-25T15:33:14;11.0;53.6
45313;SHT31;68267;51.540;5.854;2023-04-25T15:46:33;10.1;54.7
45313;SHT31;68267;51.540;5.854;2023-04-25T15:59:53;10.7;56.7
45313;SHT31;68267;51.540;5.854;2023-04-25T16:13:13;12.3;47.2
45313;SHT31;68267;51.540;5.854;2023-04-25T16:26:32;10.9;56.7
45313;SHT31;68267;51.540;5.854;2023-04-25T16:39:52;11.1;50.5
45313;SHT31;68267;51.540;5.854;2023-04-25T16:53:12;9.4;60.4
45313;SHT31;68267;51.540;5.854;2023-04-25T17:06:31;9.4;57.0
45313;SHT31;68267;51.540;5.854;2023-04-25T17:19:51;9.3;56.8
45313;SHT31;68267;51.540;5.854;2023-04-25T17:33:11;9.0;57.6
45313;SHT31;68267;51.540;5.854;2023-04-25T17:46:30;10.1;55.7
45313;SHT31;68267;51.540;5.854;2023-04-25T17:59:50;10.3;55.7
45313;SHT31;68267;51.540;5.854;2023-04-25T18:13:10;9.6;58.7
45313;SHT31;68267;51.540;5.854;2023-04-25T18:26:30;8.7;59.9
45313;SHT31;68267;51.540;5.854;2023-04-25T18:39:49;8.1;62.1
45313;SHT31;68267;51.540;5.854;2023-04-25T18:53:09;7.7;64.3
45313;SHT31;68267;51.540;5.854;2023-04-25T19:06:29;7.2;65.3
45313;SHT31;68267;51.540;5.854;2023-04-25T19:19:49;6.9;66.6
45313;SHT31;68267;51.540;5.854;2023-04-25T19:33:08;6.6;67.5
45313;SHT31;68267;51.540;5.854;2023-04-25T19:46:28;6.2;69.1
45313;SHT31;68267;51.540;5.854;2023-04-25T19:59:48;5.9;71.1
45313;SHT31;68267;51.540;5.854;2023-04-25T20:13:08;5.8;72.0
45313;SHT31;68267;51.540;5.854;2023-04-25T20:26:28;5.4;71.7
45313;SHT31;68267;51.540;5.854;2023-04-25T20:39:47;4.7;76.0
45313;SHT31;68267;51.540;5.854;2023-04-25T20:53:07;4.6;77.4
45313;SHT31;68267;51.540;5.854;2023-04-25T21:06:27;4.8;76.7
45313;SHT31;68267;51.540;5.854;2023-04-25T21:19:46;4.7;77.1
45313;SHT31;68267;51.540;5.854;2023-04-25T21:33:06;4.8;76.6
45313;SHT31;68267;51.540;5.854;2023-04-25T21:46:26;4.6;77.0
45313;SHT31;68267;51.540;5.854;2023-04-25T21:59:45;4.5;77.4
45313;SHT31;68267;51.540;5.854;2023-04-25T22:13:05;4.0;77.3
45313;SHT31;68267;51.540;5.854;2023-04-25T22:39:45;3.1;80.2
45313;SHT31;68267;51.540;5.854;2023-04-25T22:53:04;3.0;81.2
45313;SHT31;68267;51.540;5.854;2023-04-25T23:06:24;2.7;81.5
45313;SHT31;68267;51.540;5.854;2023-04-25T23:19:44;2.6;81.8
45313;SHT31;68267;51.540;5.854;2023-04-25T23:33:03;2.5;82.2
45313;SHT31;68267;51.540;5.854;2023-04-25T23:46:23;2.5;82.4
45313;SHT31;68267;51.540;5.854;2023-04-25T23:59:43;2.3;83.5
